Private Wetterstation Nrnberg - Katzwang
Wetterdaten: Dezember 2009
Datum Temp. A. Feuchte A. Luftdruck Regen Wind Richtung Taupunkt Windchill Windben
01.12.2009 4,1 C 92 % 1004 hPa 3,6 l/m 2,7 km/h W-NW 3,0 C 3,8 C 3,8 km/h
02.12.2009 2,6 C 91 % 1011 hPa 0,0 l/m 5,1 km/h NO 1,2 C 1,5 C 6,2 km/h
03.12.2009 2,8 C 88 % 1007 hPa 0,0 l/m 8,7 km/h NO 0,9 C 0,4 C 10,1 km/h
04.12.2009 2,2 C 91 % 1008 hPa 2,1 l/m 2,6 km/h NO 0,8 C 1,7 C 3,6 km/h
05.12.2009 1,1 C 91 % 1013 hPa 0,0 l/m 6,3 km/h NO -0,3 C -0,7 C 7,4 km/h
06.12.2009 5,8 C 89 % 1010 hPa 4,7 l/m 9,5 km/h NO 4,2 C 3,2 C 10,8 km/h
07.12.2009 7,2 C 94 % 1011 hPa 3,1 l/m 2,9 km/h O-NO 6,3 C 6,9 C 3,9 km/h
08.12.2009 6,7 C 89 % 1011 hPa 2,1 l/m 6,2 km/h W-NW 5,0 C 5,4 C 7,9 km/h
09.12.2009 4,1 C 88 % 1023 hPa 0,0 l/m 1,6 km/h W-NW 2,2 C 3,9 C 2,6 km/h
10.12.2009 3,7 C 92 % 1020 hPa 4,1 l/m 6,1 km/h W-NW 2,5 C 2,4 C 7,8 km/h
11.12.2009 3,9 C 91 % 1018 hPa 5,2 l/m 6,6 km/h W-NW 2,5 C 2,3 C 8,5 km/h
12.12.2009 0,5 C 90 % 1020 hPa 1,6 l/m 2,3 km/h N-NO -1,0 C 0,3 C 3,3 km/h
13.12.2009 -1,1 C 80 % 1018 hPa 0,0 l/m 6,5 km/h O -4,1 C -2,9 C 7,8 km/h
14.12.2009 -3,2 C 73 % 1017 hPa 0,0 l/m 8,7 km/h O -7,5 C -6,4 C 10,6 km/h
15.12.2009 -1,8 C 71 % 1013 hPa 0,0 l/m 8,3 km/h O-NO -6,5 C -4,7 C 10,7 km/h
16.12.2009 -3,1 C 79 % 1008 hPa 0,0 l/m 0,9 km/h NO -6,3 C -3,2 C 1,9 km/h
17.12.2009 -5,0 C 76 % 1006 hPa 0,0 l/m 0,9 km/h NO -8,7 C -5,1 C 1,9 km/h
18.12.2009 -7,0 C 83 % 1003 hPa 0,0 l/m 1,7 km/h N -9,4 C -7,3 C 2,7 km/h
19.12.2009 -12,6 C 80 % 1002 hPa 0,0 l/m 1,9 km/h W-NW -15,3 C -12,9 C 2,9 km/h
20.12.2009 -9,9 C 81 % 1003 hPa 0,0 l/m 6,6 km/h NO -12,6 C -12,4 C 7,9 km/h
21.12.2009 -3,9 C 87 % 1001 hPa 0,0 l/m 6,2 km/h O-NO -5,7 C -6,1 C 7,5 km/h
22.12.2009 2,7 C 89 % 991 hPa 3,6 l/m 7,3 km/h NO 1,1 C 0,5 C 8,9 km/h
23.12.2009 1,9 C 92 % 995 hPa 0,5 l/m 2,6 km/h W-NW 0,8 C 1,5 C 3,6 km/h
24.12.2009 1,8 C 93 % 992 hPa 0,5 l/m 1,7 km/h O-NO 0,8 C 1,6 C 2,7 km/h
25.12.2009 3,6 C 89 % 994 hPa 0,0 l/m 7,6 km/h W-NW 1,8 C 1,3 C 10,0 km/h
26.12.2009 0,5 C 85 % 1008 hPa 0,0 l/m 3,5 km/h W-NW -1,7 C -0,2 C 4,6 km/h
27.12.2009 -1,4 C 87 % 1005 hPa 0,0 l/m 3,5 km/h NO -3,4 C -2,1 C 4,5 km/h
28.12.2009 1,5 C 85 % 1004 hPa 0,0 l/m 4,1 km/h W-NW -0,8 C 0,6 C 5,3 km/h
29.12.2009 -0,9 C 90 % 1001 hPa 6,7 l/m 5,3 km/h NO -2,4 C -2,6 C 6,9 km/h
30.12.2009 5,9 C 95 % 994 hPa 3,6 l/m 4,8 km/h N 5,1 C 4,9 C 5,8 km/h
31.12.2009 5,2 C 95 % 993 hPa 0,0 l/m 1,7 km/h NO 4,5 C 5,1 C 2,7 km/h
Min-Datum 19.12.09 17.12.09 25.12.09 13 Tage 01.12.09 - 19.12.09 20.12.09 01.12.09
Min-Zeit 23:20 14:50 00:00 - 00:50 - 23:20 12:50 00:50
Minimum -15,2 C 60 % 984 hPa - 0,0 km/h - -17,9 C -20,8 C 1,0 km/h
Max-Datum 07.12.09 31.12.09 09.12.09 29.12.09 15.12.09 - 07.12.09 07.12.09 25.12.09
Max-Zeit 14:20 12:00 18:00 15:20 11:30 - 13:00 14:20 12:20
Maximum 8,7 C 96 % 1026 hPa 6,7 l/m 28,7 km/h
O-NO
- 7,7 C 8,7 C 50,2 km/h
W-NW
Durchschnitt 0,6 C 87 % 1007 hPa #41,4 l/m 4,7 km/h NO -1,4 C -0,6 C 6,0 km/h

Durchschnitt Minimum Temp.-2,6 C
Durchschnitt Maximum Temp.3,5 C